sensor_id;sensor_type;location;lat;lon;timestamp;pressure;altitude;pressure_sealevel;temperature;humidity
3132;BME280;62090;52.330;9.104;2023-01-29T00:01:09;102329.56;;;1.75;89.32
3132;BME280;62090;52.330;9.104;2023-01-29T00:03:39;102345.09;;;1.90;88.86
3132;BME280;62090;52.330;9.104;2023-01-29T00:06:09;102357.72;;;1.81;88.99
3132;BME280;62090;52.330;9.104;2023-01-29T00:08:41;102350.56;;;1.86;88.99
3132;BME280;62090;52.330;9.104;2023-01-29T00:11:11;102316.09;;;1.64;89.45
3132;BME280;62090;52.330;9.104;2023-01-29T00:13:43;102332.72;;;1.83;89.62
3132;BME280;62090;52.330;9.104;2023-01-29T00:16:13;102282.50;;;1.54;88.83
3132;BME280;62090;52.330;9.104;2023-01-29T00:18:43;102336.16;;;1.93;89.33
3132;BME280;62090;52.330;9.104;2023-01-29T00:21:14;102329.22;;;1.91;88.58
3132;BME280;62090;52.330;9.104;2023-01-29T00:23:48;102335.25;;;1.83;88.66
3132;BME280;62090;52.330;9.104;2023-01-29T00:26:18;102311.59;;;1.70;88.93
3132;BME280;62090;52.330;9.104;2023-01-29T00:28:48;102321.94;;;1.84;88.29
3132;BME280;62090;52.330;9.104;2023-01-29T00:31:19;102305.47;;;1.48;88.57
3132;BME280;62090;52.330;9.104;2023-01-29T00:33:49;102330.19;;;1.73;88.60
3132;BME280;62090;52.330;9.104;2023-01-29T00:36:20;102319.13;;;1.70;89.25
3132;BME280;62090;52.330;9.104;2023-01-29T00:38:56;102328.22;;;1.89;88.54
3132;BME280;62090;52.330;9.104;2023-01-29T00:41:30;102330.00;;;1.90;88.52
3132;BME280;62090;52.330;9.104;2023-01-29T00:44:14;102333.88;;;1.86;88.41
3132;BME280;62090;52.330;9.104;2023-01-29T00:46:57;102321.78;;;1.72;88.25
3132;BME280;62090;52.330;9.104;2023-01-29T00:49:26;102330.00;;;1.90;88.36
3132;BME280;62090;52.330;9.104;2023-01-29T00:51:57;102338.81;;;1.95;87.64
3132;BME280;62090;52.330;9.104;2023-01-29T00:54:42;102335.78;;;1.99;88.30
3132;BME280;62090;52.330;9.104;2023-01-29T00:57:12;102339.56;;;1.94;87.19
3132;BME280;62090;52.330;9.104;2023-01-29T00:59:41;102325.22;;;1.93;87.78
3132;BME280;62090;52.330;9.104;2023-01-29T01:02:11;102318.69;;;1.95;87.63
3132;BME280;62090;52.330;9.104;2023-01-29T01:04:56;102326.50;;;2.08;87.18
3132;BME280;62090;52.330;9.104;2023-01-29T01:07:29;102319.66;;;1.87;87.66
3132;BME280;62090;52.330;9.104;2023-01-29T01:10:01;102310.88;;;1.82;88.02
3132;BME280;62090;52.330;9.104;2023-01-29T01:12:44;102301.81;;;1.74;88.05
3132;BME280;62090;52.330;9.104;2023-01-29T01:15:14;102279.19;;;1.63;87.76
3132;BME280;62090;52.330;9.104;2023-01-29T01:17:44;102291.66;;;1.82;87.76
3132;BME280;62090;52.330;9.104;2023-01-29T01:20:14;102289.78;;;1.80;87.81
3132;BME280;62090;52.330;9.104;2023-01-29T01:22:45;102292.78;;;1.86;87.05
3132;BME280;62090;52.330;9.104;2023-01-29T01:25:18;102274.69;;;1.90;86.84
3132;BME280;62090;52.330;9.104;2023-01-29T01:27:51;102280.72;;;1.92;86.96
3132;BME280;62090;52.330;9.104;2023-01-29T01:30:22;102293.78;;;1.78;86.82
3132;BME280;62090;52.330;9.104;2023-01-29T01:32:53;102263.84;;;1.81;87.13
3132;BME280;62090;52.330;9.104;2023-01-29T01:35:23;102280.97;;;1.85;86.67
3132;BME280;62090;52.330;9.104;2023-01-29T01:37:53;102275.53;;;1.70;87.06
3132;BME280;62090;52.330;9.104;2023-01-29T01:40:25;102270.66;;;1.82;86.83
3132;BME280;62090;52.330;9.104;2023-01-29T01:42:57;102280.19;;;1.76;86.88
3132;BME280;62090;52.330;9.104;2023-01-29T01:45:29;102258.19;;;1.63;86.98
3132;BME280;62090;52.330;9.104;2023-01-29T01:48:02;102258.69;;;2.60;90.79
3132;BME280;62090;52.330;9.104;2023-01-29T01:50:35;102285.78;;;2.52;85.73
3132;BME280;62090;52.330;9.104;2023-01-29T01:53:11;102258.63;;;1.98;84.97
3132;BME280;62090;52.330;9.104;2023-01-29T01:55:47;102262.38;;;1.83;85.44
3132;BME280;62090;52.330;9.104;2023-01-29T01:58:22;102241.00;;;1.78;86.56
3132;BME280;62090;52.330;9.104;2023-01-29T02:00:53;102275.69;;;2.02;86.62
3132;BME280;62090;52.330;9.104;2023-01-29T02:03:23;102271.03;;;1.96;86.59
3132;BME280;62090;52.330;9.104;2023-01-29T02:06:10;102272.56;;;1.84;86.84
3132;BME280;62090;52.330;9.104;2023-01-29T02:08:57;102291.28;;;1.98;87.90
3132;BME280;62090;52.330;9.104;2023-01-29T02:11:42;102255.56;;;1.82;86.12
3132;BME280;62090;52.330;9.104;2023-01-29T02:14:13;102292.03;;;1.97;86.57
3132;BME280;62090;52.330;9.104;2023-01-29T02:16:42;102300.59;;;1.89;86.35
3132;BME280;62090;52.330;9.104;2023-01-29T02:19:20;102286.13;;;2.06;87.06
3132;BME280;62090;52.330;9.104;2023-01-29T02:22:26;102284.13;;;2.12;85.81
3132;BME280;62090;52.330;9.104;2023-01-29T02:25:01;102255.22;;;1.87;87.48
3132;BME280;62090;52.330;9.104;2023-01-29T02:30:36;102319.44;;;1.94;87.38
3132;BME280;62090;52.330;9.104;2023-01-29T02:33:14;102320.72;;;2.19;87.06
3132;BME280;62090;52.330;9.104;2023-01-29T02:35:55;102297.34;;;2.20;85.95
3132;BME280;62090;52.330;9.104;2023-01-29T02:38:30;102312.94;;;2.26;86.11
3132;BME280;62090;52.330;9.104;2023-01-29T02:41:09;102324.25;;;2.21;85.31
3132;BME280;62090;52.330;9.104;2023-01-29T02:43:46;102309.19;;;2.41;84.75
3132;BME280;62090;52.330;9.104;2023-01-29T02:46:22;102317.22;;;2.58;84.16
3132;BME280;62090;52.330;9.104;2023-01-29T02:49:02;102294.84;;;2.30;84.47
3132;BME280;62090;52.330;9.104;2023-01-29T02:51:42;102324.91;;;2.59;83.61
3132;BME280;62090;52.330;9.104;2023-01-29T02:54:20;102323.00;;;2.67;83.70
3132;BME280;62090;52.330;9.104;2023-01-29T02:56:55;102314.69;;;2.58;83.12
3132;BME280;62090;52.330;9.104;2023-01-29T02:59:33;102322.25;;;2.58;83.96
3132;BME280;62090;52.330;9.104;2023-01-29T03:02:10;102324.75;;;2.68;83.73
3132;BME280;62090;52.330;9.104;2023-01-29T03:04:45;102321.38;;;2.57;83.75
3132;BME280;62090;52.330;9.104;2023-01-29T03:07:21;102277.97;;;2.29;84.19
3132;BME280;62090;52.330;9.104;2023-01-29T03:10:08;102290.81;;;2.42;84.73
3132;BME280;62090;52.330;9.104;2023-01-29T03:12:43;102293.72;;;2.37;84.36
3132;BME280;62090;52.330;9.104;2023-01-29T03:15:19;102301.25;;;2.57;84.17
3132;BME280;62090;52.330;9.104;2023-01-29T03:18:21;102275.31;;;2.28;84.97
3132;BME280;62090;52.330;9.104;2023-01-29T03:21:02;102279.59;;;2.29;84.78
3132;BME280;62090;52.330;9.104;2023-01-29T03:23:56;102212.63;;;1.79;85.65
3132;BME280;62090;52.330;9.104;2023-01-29T03:26:42;102281.00;;;2.25;86.30
3132;BME280;62090;52.330;9.104;2023-01-29T03:29:29;102287.91;;;2.18;85.87
3132;BME280;62090;52.330;9.104;2023-01-29T03:32:13;102276.34;;;2.20;85.87
3132;BME280;62090;52.330;9.104;2023-01-29T03:34:49;102276.34;;;2.20;85.98
3132;BME280;62090;52.330;9.104;2023-01-29T03:37:23;102252.97;;;2.10;86.04
3132;BME280;62090;52.330;9.104;2023-01-29T03:39:55;102264.91;;;2.13;86.02
3132;BME280;62090;52.330;9.104;2023-01-29T03:42:28;102229.19;;;2.07;86.46
3132;BME280;62090;52.330;9.104;2023-01-29T03:45:07;102256.84;;;2.17;85.85
3132;BME280;62090;52.330;9.104;2023-01-29T03:47:49;102243.28;;;2.05;86.25
3132;BME280;62090;52.330;9.104;2023-01-29T03:50:30;102247.06;;;2.10;85.26
3132;BME280;62090;52.330;9.104;2023-01-29T03:53:07;102239.75;;;2.13;85.84
3132;BME280;62090;52.330;9.104;2023-01-29T03:55:42;102256.97;;;2.19;85.29
3132;BME280;62090;52.330;9.104;2023-01-29T03:58:20;102253.47;;;2.17;85.60
3132;BME280;62090;52.330;9.104;2023-01-29T04:00:56;102248.81;;;2.11;86.54
3132;BME280;62090;52.330;9.104;2023-01-29T04:03:32;102236.38;;;2.02;86.60
3132;BME280;62090;52.330;9.104;2023-01-29T04:06:12;102227.69;;;1.89;87.66
3132;BME280;62090;52.330;9.104;2023-01-29T04:09:04;102217.88;;;1.82;87.39
3132;BME280;62090;52.330;9.104;2023-01-29T04:11:41;102229.47;;;1.90;86.66
3132;BME280;62090;52.330;9.104;2023-01-29T04:14:13;102212.25;;;1.84;86.67
3132;BME280;62090;52.330;9.104;2023-01-29T04:16:48;102202.81;;;1.92;86.69
3132;BME280;62090;52.330;9.104;2023-01-29T04:19:32;102183.44;;;1.91;86.34
3132;BME280;62090;52.330;9.104;2023-01-29T04:22:09;102200.78;;;2.08;87.01
3132;BME280;62090;52.330;9.104;2023-01-29T04:24:41;102173.41;;;2.01;86.18
3132;BME280;62090;52.330;9.104;2023-01-29T04:27:22;102175.66;;;1.98;86.43
3132;BME280;62090;52.330;9.104;2023-01-29T04:30:06;102153.03;;;2.08;86.59
3132;BME280;62090;52.330;9.104;2023-01-29T04:32:50;102164.09;;;2.00;86.29
3132;BME280;62090;52.330;9.104;2023-01-29T04:35:31;102169.63;;;2.06;86.76
3132;BME280;62090;52.330;9.104;2023-01-29T04:38:11;102131.19;;;1.77;86.30
3132;BME280;62090;52.330;9.104;2023-01-29T04:40:50;102174.25;;;2.01;86.88
3132;BME280;62090;52.330;9.104;2023-01-29T04:43:25;102170.38;;;2.05;86.74
3132;BME280;62090;52.330;9.104;2023-01-29T04:46:07;102162.94;;;2.06;86.36
3132;BME280;62090;52.330;9.104;2023-01-29T04:48:46;102177.53;;;2.21;86.27
3132;BME280;62090;52.330;9.104;2023-01-29T04:51:24;102142.44;;;2.12;86.31
3132;BME280;62090;52.330;9.104;2023-01-29T04:54:03;102158.91;;;2.19;86.38
3132;BME280;62090;52.330;9.104;2023-01-29T04:56:40;102159.56;;;2.16;87.15
3132;BME280;62090;52.330;9.104;2023-01-29T04:59:14;102155.13;;;2.24;86.90
3132;BME280;62090;52.330;9.104;2023-01-29T05:01:47;102143.59;;;2.16;86.44
3132;BME280;62090;52.330;9.104;2023-01-29T05:04:18;102153.25;;;2.21;86.61
3132;BME280;62090;52.330;9.104;2023-01-29T05:06:49;102147.34;;;2.21;86.21
3132;BME280;62090;52.330;9.104;2023-01-29T05:09:22;102135.16;;;2.15;85.88
3132;BME280;62090;52.330;9.104;2023-01-29T05:11:54;102140.94;;;2.14;86.30
3132;BME280;62090;52.330;9.104;2023-01-29T05:14:24;102156.75;;;2.23;86.67
3132;BME280;62090;52.330;9.104;2023-01-29T05:16:59;102165.06;;;2.32;85.60
3132;BME280;62090;52.330;9.104;2023-01-29T05:19:32;102163.59;;;2.04;86.20
3132;BME280;62090;52.330;9.104;2023-01-29T05:22:03;102170.88;;;2.11;86.57
3132;BME280;62090;52.330;9.104;2023-01-29T05:24:36;102163.34;;;2.11;86.44
3132;BME280;62090;52.330;9.104;2023-01-29T05:27:06;102169.84;;;2.19;86.95
3132;BME280;62090;52.330;9.104;2023-01-29T05:29:53;102158.41;;;2.12;86.73
3132;BME280;62090;52.330;9.104;2023-01-29T05:32:23;102160.53;;;2.18;86.81
3132;BME280;62090;52.330;9.104;2023-01-29T05:34:53;102119.34;;;1.96;86.55
3132;BME280;62090;52.330;9.104;2023-01-29T05:37:22;102144.06;;;2.11;86.44
3132;BME280;62090;52.330;9.104;2023-01-29T05:39:55;102171.63;;;2.20;86.70
3132;BME280;62090;52.330;9.104;2023-01-29T05:42:24;102165.56;;;2.28;85.77
3132;BME280;62090;52.330;9.104;2023-01-29T05:44:54;102164.81;;;2.19;86.15
3132;BME280;62090;52.330;9.104;2023-01-29T05:47:24;102164.81;;;2.19;86.87
3132;BME280;62090;52.330;9.104;2023-01-29T05:49:53;102173.13;;;2.08;86.91
3132;BME280;62090;52.330;9.104;2023-01-29T05:52:23;102177.19;;;2.06;88.03
3132;BME280;62090;52.330;9.104;2023-01-29T05:54:55;102163.75;;;1.95;88.05
3132;BME280;62090;52.330;9.104;2023-01-29T05:57:25;102162.34;;;1.89;87.97
3132;BME280;62090;52.330;9.104;2023-01-29T05:59:55;102184.69;;;1.96;88.52
3132;BME280;62090;52.330;9.104;2023-01-29T06:02:24;102180.31;;;1.93;88.46
3132;BME280;62090;52.330;9.104;2023-01-29T06:04:54;102169.63;;;2.06;88.21
3132;BME280;62090;52.330;9.104;2023-01-29T06:07:24;102174.66;;;2.16;87.54
3132;BME280;62090;52.330;9.104;2023-01-29T06:09:56;102167.84;;;2.15;87.48
3132;BME280;62090;52.330;9.104;2023-01-29T06:12:26;102177.19;;;2.06;87.59
3132;BME280;62090;52.330;9.104;2023-01-29T06:14:56;102174.16;;;2.10;88.56
3132;BME280;62090;52.330;9.104;2023-01-29T06:17:25;102193.25;;;1.98;88.65
3132;BME280;62090;52.330;9.104;2023-01-29T06:19:55;102166.88;;;1.83;89.06
3132;BME280;62090;52.330;9.104;2023-01-29T06:22:25;102190.13;;;2.00;88.84
3132;BME280;62090;52.330;9.104;2023-01-29T06:24:57;102194.00;;;1.97;88.47
3132;BME280;62090;52.330;9.104;2023-01-29T06:27:27;102173.66;;;1.84;89.51
3132;BME280;62090;52.330;9.104;2023-01-29T06:29:57;102178.16;;;1.98;89.27
3132;BME280;62090;52.330;9.104;2023-01-29T06:32:26;102180.69;;;1.88;89.32
3132;BME280;62090;52.330;9.104;2023-01-29T06:34:56;102179.06;;;1.88;90.03
3132;BME280;62090;52.330;9.104;2023-01-29T06:37:26;102154.94;;;1.90;89.53
3132;BME280;62090;52.330;9.104;2023-01-29T06:39:58;102184.44;;;2.03;89.93
3132;BME280;62090;52.330;9.104;2023-01-29T06:42:28;102168.34;;;1.91;90.31
3132;BME280;62090;52.330;9.104;2023-01-29T06:44:58;102167.63;;;1.72;91.21
3132;BME280;62090;52.330;9.104;2023-01-29T06:47:27;102142.25;;;1.68;92.45
3132;BME280;62090;52.330;9.104;2023-01-29T06:49:57;102142.13;;;1.57;93.35
3132;BME280;62090;52.330;9.104;2023-01-29T06:52:27;102179.44;;;1.73;94.54
3132;BME280;62090;52.330;9.104;2023-01-29T06:54:59;102180.31;;;1.93;94.26
3132;BME280;62090;52.330;9.104;2023-01-29T06:57:29;102157.06;;;1.65;94.85
3132;BME280;62090;52.330;9.104;2023-01-29T06:59:58;102210.47;;;1.83;94.99
3132;BME280;62090;52.330;9.104;2023-01-29T07:02:28;102212.72;;;1.80;95.79
3132;BME280;62090;52.330;9.104;2023-01-29T07:04:58;102217.13;;;1.83;96.98
3132;BME280;62090;52.330;9.104;2023-01-29T07:07:27;102202.56;;;1.89;96.87
3132;BME280;62090;52.330;9.104;2023-01-29T07:10:00;102211.72;;;1.88;97.37
3132;BME280;62090;52.330;9.104;2023-01-29T07:12:29;101961.63;;;0.30;97.63
3132;BME280;62090;52.330;9.104;2023-01-29T07:14:59;102199.78;;;1.76;98.99
3132;BME280;62090;52.330;9.104;2023-01-29T07:17:29;102186.31;;;1.75;99.23
3132;BME280;62090;52.330;9.104;2023-01-29T07:19:59;102186.59;;;1.88;99.37
3132;BME280;62090;52.330;9.104;2023-01-29T07:22:28;102193.75;;;1.84;98.75
3132;BME280;62090;52.330;9.104;2023-01-29T07:25:00;102179.66;;;1.76;98.89
3132;BME280;62090;52.330;9.104;2023-01-29T07:27:30;102203.06;;;1.95;99.56
3132;BME280;62090;52.330;9.104;2023-01-29T07:30:00;102196.88;;;2.11;98.67
3132;BME280;62090;52.330;9.104;2023-01-29T07:32:29;102178.41;;;1.91;98.83
3132;BME280;62090;52.330;9.104;2023-01-29T07:34:59;102147.28;;;1.68;99.96
3132;BME280;62090;52.330;9.104;2023-01-29T07:37:29;102150.53;;;1.67;100.00
3132;BME280;62090;52.330;9.104;2023-01-29T07:40:01;102172.13;;;1.86;100.00
3132;BME280;62090;52.330;9.104;2023-01-29T07:42:36;102185.72;;;1.88;100.00
3132;BME280;62090;52.330;9.104;2023-01-29T07:45:09;102171.00;;;1.92;100.00
3132;BME280;62090;52.330;9.104;2023-01-29T07:47:39;102165.34;;;2.05;100.00
3132;BME280;62090;52.330;9.104;2023-01-29T07:50:10;102136.34;;;1.88;100.00
3132;BME280;62090;52.330;9.104;2023-01-29T07:52:40;102128.81;;;1.78;100.00
3132;BME280;62090;52.330;9.104;2023-01-29T07:55:12;102107.31;;;1.61;100.00
3132;BME280;62090;52.330;9.104;2023-01-29T07:57:42;102129.31;;;1.84;100.00
3132;BME280;62090;52.330;9.104;2023-01-29T08:00:13;102117.63;;;1.85;100.00
3132;BME280;62090;52.330;9.104;2023-01-29T08:02:44;102124.00;;;1.81;100.00
3132;BME280;62090;52.330;9.104;2023-01-29T08:05:13;101960.72;;;0.89;100.00
3132;BME280;62090;52.330;9.104;2023-01-29T08:07:43;102118.72;;;1.98;100.00
3132;BME280;62090;52.330;9.104;2023-01-29T08:10:32;102112.59;;;1.85;100.00
3132;BME280;62090;52.330;9.104;2023-01-29T08:13:03;102100.13;;;1.86;100.00
3132;BME280;62090;52.330;9.104;2023-01-29T08:15:33;102101.78;;;1.65;100.00
3132;BME280;62090;52.330;9.104;2023-01-29T08:18:05;102109.59;;;1.58;100.00
3132;BME280;62090;52.330;9.104;2023-01-29T08:20:35;102121.38;;;1.69;100.00
3132;BME280;62090;52.330;9.104;2023-01-29T08:23:06;102124.75;;;1.80;100.00
3132;BME280;62090;52.330;9.104;2023-01-29T08:25:39;102108.06;;;1.81;100.00
3132;BME280;62090;52.330;9.104;2023-01-29T08:28:10;102110.69;;;1.92;100.00
3132;BME280;62090;52.330;9.104;2023-01-29T08:30:40;102119.59;;;1.99;100.00
3132;BME280;62090;52.330;9.104;2023-01-29T08:33:10;102100.00;;;1.95;100.00
3132;BME280;62090;52.330;9.104;2023-01-29T08:35:41;102122.34;;;2.12;100.00
3132;BME280;62090;52.330;9.104;2023-01-29T08:38:10;102118.09;;;2.11;100.00
3132;BME280;62090;52.330;9.104;2023-01-29T08:40:43;102123.13;;;2.01;99.72
3132;BME280;62090;52.330;9.104;2023-01-29T08:43:13;102118.75;;;1.88;100.00
3132;BME280;62090;52.330;9.104;2023-01-29T08:45:43;102124.63;;;1.99;100.00
3132;BME280;62090;52.330;9.104;2023-01-29T08:48:12;102098.00;;;1.81;100.00
3132;BME280;62090;52.330;9.104;2023-01-29T08:50:42;102127.38;;;2.02;100.00
3132;BME280;62090;52.330;9.104;2023-01-29T08:53:12;102122.50;;;2.03;100.00
3132;BME280;62090;52.330;9.104;2023-01-29T08:55:45;102123.34;;;2.14;99.79
3132;BME280;62090;52.330;9.104;2023-01-29T08:58:14;102093.72;;;2.00;99.43
3132;BME280;62090;52.330;9.104;2023-01-29T09:00:44;102094.09;;;2.04;99.93
3132;BME280;62090;52.330;9.104;2023-01-29T09:03:14;102106.38;;;2.11;99.19
3132;BME280;62090;52.330;9.104;2023-01-29T09:05:44;102099.09;;;2.04;99.28
3132;BME280;62090;52.330;9.104;2023-01-29T09:08:13;102086.66;;;2.06;99.47
3132;BME280;62090;52.330;9.104;2023-01-29T09:10:46;102083.59;;;2.20;99.03
3132;BME280;62090;52.330;9.104;2023-01-29T09:13:16;102085.78;;;2.05;98.86
3132;BME280;62090;52.330;9.104;2023-01-29T09:15:45;102107.75;;;2.18;98.58
3132;BME280;62090;52.330;9.104;2023-01-29T09:18:18;102108.25;;;2.14;97.94
3132;BME280;62090;52.330;9.104;2023-01-29T09:20:47;102124.19;;;2.25;98.75
3132;BME280;62090;52.330;9.104;2023-01-29T09:23:17;102099.84;;;2.03;98.53
3132;BME280;62090;52.330;9.104;2023-01-29T09:25:49;102092.69;;;2.08;98.32
3132;BME280;62090;52.330;9.104;2023-01-29T09:28:19;102112.50;;;2.25;98.08
3132;BME280;62090;52.330;9.104;2023-01-29T09:30:49;102057.25;;;2.05;97.96
3132;BME280;62090;52.330;9.104;2023-01-29T09:33:18;102073.91;;;2.25;97.88
3132;BME280;62090;52.330;9.104;2023-01-29T09:35:50;102093.38;;;2.37;98.12
3132;BME280;62090;52.330;9.104;2023-01-29T09:38:20;102080.19;;;2.30;97.49
3132;BME280;62090;52.330;9.104;2023-01-29T09:40:58;102083.88;;;2.45;97.25
3132;BME280;62090;52.330;9.104;2023-01-29T09:43:39;102085.03;;;2.38;97.11
3132;BME280;62090;52.330;9.104;2023-01-29T09:46:16;102083.19;;;2.36;97.94
3132;BME280;62090;52.330;9.104;2023-01-29T09:49:00;102087.72;;;2.62;97.25
3132;BME280;62090;52.330;9.104;2023-01-29T09:51:36;102064.59;;;2.55;96.49
3132;BME280;62090;52.330;9.104;2023-01-29T09:54:15;102062.25;;;2.47;96.20
3132;BME280;62090;52.330;9.104;2023-01-29T09:56:49;102072.53;;;2.50;96.78
3132;BME280;62090;52.330;9.104;2023-01-29T09:59:21;102067.59;;;2.62;96.59
3132;BME280;62090;52.330;9.104;2023-01-29T10:02:00;102054.19;;;2.73;95.85
3132;BME280;62090;52.330;9.104;2023-01-29T10:04:56;102040.97;;;2.53;94.66
3132;BME280;62090;52.330;9.104;2023-01-29T10:07:57;102043.72;;;2.57;94.17
3132;BME280;62090;52.330;9.104;2023-01-29T10:10:40;102045.06;;;2.63;95.57
3132;BME280;62090;52.330;9.104;2023-01-29T10:13:23;102004.75;;;2.51;94.46
3132;BME280;62090;52.330;9.104;2023-01-29T10:16:23;102053.13;;;2.81;93.23
3132;BME280;62090;52.330;9.104;2023-01-29T10:19:07;102040.31;;;2.78;93.26
3132;BME280;62090;52.330;9.104;2023-01-29T10:22:03;102057.81;;;2.76;91.67
3132;BME280;62090;52.330;9.104;2023-01-29T10:24:44;102064.78;;;2.69;94.11
3132;BME280;62090;52.330;9.104;2023-01-29T10:27:17;102063.34;;;2.50;93.30
3132;BME280;62090;52.330;9.104;2023-01-29T10:29:52;102050.97;;;2.42;92.95
3132;BME280;62090;52.330;9.104;2023-01-29T10:32:25;102063.22;;;2.49;93.69
3132;BME280;62090;52.330;9.104;2023-01-29T10:34:56;102060.84;;;2.50;93.34
3132;BME280;62090;52.330;9.104;2023-01-29T10:37:35;101995.59;;;2.20;93.35
3132;BME280;62090;52.330;9.104;2023-01-29T10:40:17;102044.00;;;2.49;93.28
3132;BME280;62090;52.330;9.104;2023-01-29T10:42:53;102053.72;;;2.67;93.84
3132;BME280;62090;52.330;9.104;2023-01-29T10:45:37;102044.19;;;2.63;93.19
3132;BME280;62090;52.330;9.104;2023-01-29T10:48:38;102043.38;;;2.74;91.98
3132;BME280;62090;52.330;9.104;2023-01-29T10:51:17;102040.19;;;2.76;92.17
3132;BME280;62090;52.330;9.104;2023-01-29T10:53:59;102036.50;;;2.83;93.13
3132;BME280;62090;52.330;9.104;2023-01-29T10:56:41;102034.00;;;2.83;92.27
3132;BME280;62090;52.330;9.104;2023-01-29T10:59:27;102021.47;;;2.73;91.73
3132;BME280;62090;52.330;9.104;2023-01-29T11:02:01;101993.16;;;2.53;92.16
3132;BME280;62090;52.330;9.104;2023-01-29T11:04:31;102014.06;;;2.86;92.19
3132;BME280;62090;52.330;9.104;2023-01-29T11:07:03;102007.94;;;2.82;91.65
3132;BME280;62090;52.330;9.104;2023-01-29T11:09:35;101999.28;;;2.79;91.78
3132;BME280;62090;52.330;9.104;2023-01-29T11:12:11;101981.06;;;2.93;91.82
3132;BME280;62090;52.330;9.104;2023-01-29T11:14:46;101976.66;;;2.79;91.47
3132;BME280;62090;52.330;9.104;2023-01-29T11:17:24;101937.13;;;2.78;92.03
3132;BME280;62090;52.330;9.104;2023-01-29T11:19:54;101993.34;;;3.00;90.49
3132;BME280;62090;52.330;9.104;2023-01-29T11:22:25;102001.28;;;3.16;90.59
3132;BME280;62090;52.330;9.104;2023-01-29T11:25:14;102005.03;;;3.21;90.34
3132;BME280;62090;52.330;9.104;2023-01-29T11:27:46;101964.66;;;2.98;91.03
3132;BME280;62090;52.330;9.104;2023-01-29T11:30:21;101979.03;;;3.11;90.55
3132;BME280;62090;52.330;9.104;2023-01-29T11:32:59;101986.06;;;3.15;90.27
3132;BME280;62090;52.330;9.104;2023-01-29T11:35:34;101981.81;;;2.92;90.41
3132;BME280;62090;52.330;9.104;2023-01-29T11:38:16;101988.41;;;3.02;90.98
3132;BME280;62090;52.330;9.104;2023-01-29T11:40:46;101962.47;;;3.03;91.15
3132;BME280;62090;52.330;9.104;2023-01-29T11:43:27;101961.06;;;3.06;90.73
3132;BME280;62090;52.330;9.104;2023-01-29T11:46:00;101899.16;;;2.75;91.51
3132;BME280;62090;52.330;9.104;2023-01-29T11:48:39;101925.59;;;3.03;91.52
3132;BME280;62090;52.330;9.104;2023-01-29T11:51:20;101891.94;;;2.91;90.33
3132;BME280;62090;52.330;9.104;2023-01-29T11:53:52;101940.63;;;3.36;89.25
3132;BME280;62090;52.330;9.104;2023-01-29T11:56:27;101929.13;;;3.28;89.69
3132;BME280;62090;52.330;9.104;2023-01-29T11:58:58;101939.09;;;3.38;89.26
3132;BME280;62090;52.330;9.104;2023-01-29T12:01:32;101913.69;;;3.24;89.59
3132;BME280;62090;52.330;9.104;2023-01-29T12:04:14;101927.56;;;3.19;89.27
3132;BME280;62090;52.330;9.104;2023-01-29T12:06:48;101920.88;;;2.96;90.76
3132;BME280;62090;52.330;9.104;2023-01-29T12:09:22;101923.72;;;3.12;90.93
3132;BME280;62090;52.330;9.104;2023-01-29T12:11:54;101905.13;;;3.10;89.73
3132;BME280;62090;52.330;9.104;2023-01-29T12:14:27;101915.63;;;3.05;90.64
3132;BME280;62090;52.330;9.104;2023-01-29T12:17:02;101901.81;;;2.88;91.00
3132;BME280;62090;52.330;9.104;2023-01-29T12:19:39;101873.13;;;2.74;91.26
3132;BME280;62090;52.330;9.104;2023-01-29T12:22:15;101890.84;;;2.87;91.53
3132;BME280;62090;52.330;9.104;2023-01-29T12:24:51;101869.31;;;2.79;91.37
3132;BME280;62090;52.330;9.104;2023-01-29T12:27:24;101870.53;;;2.96;91.52
3132;BME280;62090;52.330;9.104;2023-01-29T12:30:03;101866.47;;;2.98;90.06
3132;BME280;62090;52.330;9.104;2023-01-29T12:32:43;101853.44;;;2.92;90.50
3132;BME280;62090;52.330;9.104;2023-01-29T12:35:22;101867.47;;;3.12;90.28
3132;BME280;62090;52.330;9.104;2023-01-29T12:37:57;101842.28;;;3.00;89.91
3132;BME280;62090;52.330;9.104;2023-01-29T12:40:32;101868.25;;;3.22;89.55
3132;BME280;62090;52.330;9.104;2023-01-29T12:43:07;101836.81;;;3.06;88.36
3132;BME280;62090;52.330;9.104;2023-01-29T12:45:41;101853.03;;;3.21;88.00
3132;BME280;62090;52.330;9.104;2023-01-29T12:48:14;101866.50;;;3.33;87.88
3132;BME280;62090;52.330;9.104;2023-01-29T12:50:51;101865.72;;;3.34;88.01
3132;BME280;62090;52.330;9.104;2023-01-29T12:53:25;101854.66;;;3.44;87.72
3132;BME280;62090;52.330;9.104;2023-01-29T12:55:58;101852.22;;;3.45;86.48
3132;BME280;62090;52.330;9.104;2023-01-29T12:58:35;101843.16;;;3.35;86.54
3132;BME280;62090;52.330;9.104;2023-01-29T13:01:11;101878.41;;;3.47;87.00
3132;BME280;62090;52.330;9.104;2023-01-29T13:03:48;101853.66;;;3.53;87.18
3132;BME280;62090;52.330;9.104;2023-01-29T13:06:27;101830.97;;;3.53;86.38
3132;BME280;62090;52.330;9.104;2023-01-29T13:08:58;101840.38;;;3.44;87.46
3132;BME280;62090;52.330;9.104;2023-01-29T13:11:35;101840.50;;;3.46;86.58
3132;BME280;62090;52.330;9.104;2023-01-29T13:14:12;101839.75;;;3.47;87.78
3132;BME280;62090;52.330;9.104;2023-01-29T13:16:49;101811.59;;;3.29;87.88
3132;BME280;62090;52.330;9.104;2023-01-29T13:19:24;101818.91;;;3.49;87.58
3132;BME280;62090;52.330;9.104;2023-01-29T13:21:59;101821.66;;;3.64;88.28
3132;BME280;62090;52.330;9.104;2023-01-29T13:24:35;101794.69;;;3.63;89.29
3132;BME280;62090;52.330;9.104;2023-01-29T13:27:20;101793.34;;;3.68;88.57
3132;BME280;62090;52.330;9.104;2023-01-29T13:29:51;101796.19;;;3.72;87.45
3132;BME280;62090;52.330;9.104;2023-01-29T13:32:24;101809.31;;;3.80;87.47
3132;BME280;62090;52.330;9.104;2023-01-29T13:34:55;101779.91;;;3.56;87.21
3132;BME280;62090;52.330;9.104;2023-01-29T13:37:32;101792.00;;;3.48;87.18
3132;BME280;62090;52.330;9.104;2023-01-29T13:40:05;101796.22;;;3.61;87.48
3132;BME280;62090;52.330;9.104;2023-01-29T13:42:39;101801.06;;;3.58;88.07
3132;BME280;62090;52.330;9.104;2023-01-29T13:45:18;101780.31;;;3.62;88.20
3132;BME280;62090;52.330;9.104;2023-01-29T13:47:50;101793.25;;;3.55;87.93
3132;BME280;62090;52.330;9.104;2023-01-29T13:50:25;101757.94;;;3.42;88.23
3132;BME280;62090;52.330;9.104;2023-01-29T13:53:02;101790.06;;;3.69;88.14